Time;durP1;ratioP1;P1;durP2;ratioP2;P2;SDS_P1;SDS_P2;PMS_P1;PMS_P2;Temp;Humidity;BMP_temperature;BMP_pressure;BME280_temperature;BME280_humidity;BME280_pressure;Samples;Min_cycle;Max_cycle;Signal;HPM_P1;HPM_P2
2023/05/17 00:00:42;;;;;;;24.38;2.30;;;;;;;6.76;48.01;102155.50;5084270;27;20036;-72
2023/05/17 00:03:07;;;;;;;13.10;0.70;;;;;;;6.63;48.36;102165.06;5083337;27;20123;-72
2023/05/17 00:05:33;;;;;;;19.10;1.00;;;;;;;6.73;48.67;102171.13;5081685;28;20516;-73
2023/05/17 00:07:58;;;;;;;12.68;1.40;;;;;;;6.12;49.92;102163.41;5088800;27;20036;-72
2023/05/17 00:10:24;;;;;;;12.60;1.70;;;;;;;6.11;50.01;102172.06;5083610;27;20394;-72
2023/05/17 00:12:49;;;;;;;12.77;1.02;;;;;;;6.22;49.35;102176.38;5087260;28;20048;-72
2023/05/17 00:15:15;;;;;;;11.90;0.52;;;;;;;6.24;49.24;102176.41;5083131;27;20042;-73
2023/05/17 00:17:40;;;;;;;15.20;1.27;;;;;;;6.22;49.42;102175.53;5086027;28;20043;-72
2023/05/17 00:20:06;;;;;;;12.60;0.85;;;;;;;6.30;49.33;102176.41;5082184;27;20031;-72
2023/05/17 00:22:32;;;;;;;17.90;1.83;;;;;;;5.99;49.82;102173.78;5085891;27;20028;-74
2023/05/17 00:24:57;;;;;;;14.48;1.13;;;;;;;6.01;49.20;102172.06;5101628;27;20428;-73
2023/05/17 00:27:22;;;;;;;8.43;1.48;;;;;;;6.17;48.62;102174.66;5081614;28;20142;-72
2023/05/17 00:29:48;;;;;;;10.98;1.00;;;;;;;5.96;48.91;102181.56;5086819;28;20043;-72
2023/05/17 00:32:13;;;;;;;7.28;0.98;;;;;;;5.67;48.81;102184.16;5086837;27;20085;-72
2023/05/17 00:34:39;;;;;;;3.97;0.40;;;;;;;5.55;49.53;102199.69;5081495;27;20035;-71
2023/05/17 00:37:04;;;;;;;5.75;0.68;;;;;;;6.02;48.21;102191.97;5089561;27;20040;-72
2023/05/17 00:39:30;;;;;;;10.00;2.25;;;;;;;6.12;47.60;102194.56;5082064;27;20028;-71
2023/05/17 00:41:56;;;;;;;7.63;0.63;;;;;;;6.10;47.70;102197.16;5080473;27;20023;-69
2023/05/17 00:44:22;;;;;;;10.35;0.88;;;;;;;5.97;48.24;102201.50;5086242;27;20032;-70
2023/05/17 00:46:49;;;;;;;5.57;0.50;;;;;;;6.20;48.11;102192.84;5086918;27;20127;-71
2023/05/17 00:49:15;;;;;;;8.93;1.50;;;;;;;6.12;48.28;102195.41;5084432;27;20630;-71
2023/05/17 00:51:40;;;;;;;6.70;0.50;;;;;;;5.89;48.95;102200.63;5084590;27;20035;-71
2023/05/17 00:54:06;;;;;;;5.88;0.50;;;;;;;5.88;49.45;102204.06;5082222;27;20040;-69
2023/05/17 00:56:31;;;;;;;21.35;1.55;;;;;;;5.63;50.13;102196.22;5083034;28;20128;-70
2023/05/17 00:58:57;;;;;;;12.23;1.92;;;;;;;5.92;49.67;102192.81;5084752;27;20039;-69
2023/05/17 01:01:25;;;;;;;11.25;2.53;;;;;;;5.83;49.53;102204.06;5080658;27;20070;-71
2023/05/17 01:03:50;;;;;;;15.18;1.77;;;;;;;6.07;48.93;102192.81;5067824;28;20039;-70
2023/05/17 01:06:16;;;;;;;10.00;1.65;;;;;;;6.09;48.39;102198.88;5079770;27;20027;-69
2023/05/17 01:08:43;;;;;;;7.32;0.70;;;;;;;6.06;48.11;102208.38;5080825;27;20036;-70
2023/05/17 01:11:15;;;;;;;16.02;1.38;;;;;;;5.73;47.83;102214.44;5082253;27;20036;-71
2023/05/17 01:13:52;;;;;;;;;;;;;;;5.95;47.36;102217.91;5084799;27;20733;-71
2023/05/17 01:16:26;;;;;;;12.20;0.77;;;;;;;6.18;46.34;102210.13;5080607;27;19915;-71
2023/05/17 01:19:01;;;;;;;7.93;0.47;;;;;;;5.90;46.13;102210.09;5085574;27;20039;-71
2023/05/17 01:22:04;;;;;;;6.78;0.60;;;;;;;5.53;46.27;102210.06;5085227;27;20069;-70
2023/05/17 01:24:52;;;;;;;6.68;1.27;;;;;;;5.87;45.44;102210.97;5080426;27;20047;-71
2023/05/17 01:27:19;;;;;;;3.70;0.40;;;;;;;5.70;45.24;102211.81;5088430;27;20199;-71
2023/05/17 01:29:47;;;;;;;5.13;0.40;;;;;;;5.65;45.30;102214.41;5089424;27;20032;-71
2023/05/17 01:32:16;;;;;;;4.53;0.38;;;;;;;5.79;45.12;102217.03;5082040;28;20693;-71
2023/05/17 01:34:42;;;;;;;5.55;0.45;;;;;;;5.56;44.69;102220.44;5081340;27;20126;-70
2023/05/17 01:37:07;;;;;;;4.47;1.10;;;;;;;5.75;44.47;102221.34;5088002;28;20047;-72
2023/05/17 01:39:33;;;;;;;7.97;0.50;;;;;;;5.96;43.44;102228.28;5081419;28;20068;-71
2023/05/17 01:42:01;;;;;;;5.07;0.85;;;;;;;5.76;43.67;102227.41;5087402;27;20027;-71
2023/05/17 01:44:59;;;;;;;8.10;0.68;;;;;;;5.69;43.08;102225.66;5085215;27;20043;-70
2023/05/17 01:47:38;;;;;;;5.80;0.65;;;;;;;5.88;42.58;102232.59;5083139;27;20039;-71
2023/05/17 01:50:06;;;;;;;6.45;0.50;;;;;;;5.76;42.73;102222.22;5089558;28;20024;-71
2023/05/17 01:52:38;;;;;;;6.40;0.50;;;;;;;5.98;42.71;102223.97;5087843;28;20416;-71
2023/05/17 01:55:13;;;;;;;5.50;0.73;;;;;;;5.82;42.75;102232.59;5072688;28;20523;-70
2023/05/17 01:57:42;;;;;;;11.98;0.77;;;;;;;5.71;43.20;102231.72;5080664;27;20097;-71
2023/05/17 02:00:10;;;;;;;11.65;0.30;;;;;;;6.14;42.78;102234.38;5105336;27;20073;-70
2023/05/17 02:02:44;;;;;;;5.32;0.40;;;;;;;6.07;42.95;102239.53;5110789;27;20032;-71
2023/05/17 02:05:10;;;;;;;5.70;0.30;;;;;;;6.17;42.87;102235.25;5081607;28;20035;-74
2023/05/17 02:07:38;;;;;;;10.68;0.47;;;;;;;5.96;42.60;102236.06;5080810;28;20632;-71
2023/05/17 02:10:04;;;;;;;5.10;0.60;;;;;;;5.71;41.55;102234.31;5071284;28;20040;-70
2023/05/17 02:12:30;;;;;;;13.75;2.13;;;;;;;6.02;40.86;102238.69;5065902;28;20039;-71
2023/05/17 02:14:56;;;;;;;1.45;0.17;;;;;;;6.04;40.92;102239.56;5061904;28;20109;-71
2023/05/17 02:17:21;;;;;;;6.60;1.33;;;;;;;5.76;41.23;102242.97;5081528;28;20142;-70
2023/05/17 02:19:47;;;;;;;7.60;0.80;;;;;;;5.77;41.22;102244.69;5080882;28;20036;-71
2023/05/17 02:22:13;;;;;;;8.38;0.65;;;;;;;5.69;40.78;102247.28;5085326;28;20448;-69
2023/05/17 02:24:38;;;;;;;3.30;0.20;;;;;;;5.43;40.76;102249.78;5078242;28;20055;-70
2023/05/17 02:27:04;;;;;;;14.00;0.85;;;;;;;5.74;40.17;102249.88;5083662;28;20048;-71
2023/05/17 02:29:31;;;;;;;3.38;0.52;;;;;;;5.89;39.76;102265.47;5080724;28;20036;-72
2023/05/17 02:31:58;;;;;;;9.07;0.52;;;;;;;6.11;39.85;102249.94;5078987;28;20081;-72
2023/05/17 02:34:23;;;;;;;8.98;0.57;;;;;;;6.15;39.34;102256.84;5082053;27;20527;-70
2023/05/17 02:36:49;;;;;;;6.80;0.32;;;;;;;6.27;39.90;102267.25;5083452;27;20032;-70
2023/05/17 02:39:14;;;;;;;10.35;0.30;;;;;;;6.24;40.02;102262.06;5068744;28;20062;-70
2023/05/17 02:41:40;;;;;;;6.25;0.75;;;;;;;5.99;40.30;102271.53;5098191;27;20041;-69
2023/05/17 02:44:05;;;;;;;6.97;0.68;;;;;;;6.27;40.22;102280.25;5085602;28;20688;-70
2023/05/17 02:46:31;;;;;;;8.30;0.47;;;;;;;6.18;40.57;102275.03;5085151;27;20042;-70
2023/05/17 02:48:56;;;;;;;13.80;0.50;;;;;;;5.94;41.01;102279.31;5084772;27;21306;-70
2023/05/17 02:51:22;;;;;;;4.53;1.15;;;;;;;5.94;40.37;102274.13;5085796;27;20039;-70
2023/05/17 02:53:47;;;;;;;5.18;0.25;;;;;;;6.43;39.24;102269.00;5085583;27;20061;-70
2023/05/17 02:56:13;;;;;;;7.22;0.60;;;;;;;6.21;39.52;102272.44;5084474;27;20055;-70
2023/05/17 02:58:38;;;;;;;5.30;0.20;;;;;;;6.06;39.79;102284.56;5085319;27;20036;-71
2023/05/17 03:01:04;;;;;;;1.77;0.10;;;;;;;6.13;39.93;102279.34;5088351;27;20412;-70
2023/05/17 03:03:30;;;;;;;6.40;0.40;;;;;;;6.01;39.91;102286.25;5081331;27;20036;-71
2023/05/17 03:06:03;;;;;;;5.30;0.30;;;;;;;6.01;40.68;102291.44;5086164;27;20065;-71
2023/05/17 03:08:30;;;;;;;10.02;0.55;;;;;;;5.84;41.40;102298.34;5070356;28;20614;-71
2023/05/17 03:10:56;;;;;;;5.68;0.85;;;;;;;5.43;41.86;102302.50;5081122;27;20072;-70
2023/05/17 03:13:22;;;;;;;10.43;0.45;;;;;;;5.74;41.56;102305.22;5088208;28;20043;-70
2023/05/17 03:15:48;;;;;;;6.53;0.80;;;;;;;5.55;41.29;102300.84;5067171;28;20024;-71
2023/05/17 03:18:14;;;;;;;6.35;0.47;;;;;;;5.43;40.58;102301.66;5089450;28;20462;-70
2023/05/17 03:20:41;;;;;;;6.60;1.52;;;;;;;5.58;40.79;102301.72;5085204;27;20076;-71
2023/05/17 03:23:06;;;;;;;4.82;0.68;;;;;;;5.54;40.52;102309.47;5069849;28;20147;-70
2023/05/17 03:25:36;;;;;;;7.47;0.43;;;;;;;5.59;40.73;102303.47;5086809;27;20063;-69
2023/05/17 03:28:03;;;;;;;3.78;0.55;;;;;;;5.58;40.90;102312.09;5100081;27;20500;-71
2023/05/17 03:30:29;;;;;;;3.42;0.30;;;;;;;5.45;40.83;102305.97;5089471;27;20024;-71
2023/05/17 03:32:54;;;;;;;3.60;0.45;;;;;;;5.58;41.38;102309.50;5067596;28;20051;-70
2023/05/17 03:35:20;;;;;;;5.57;0.40;;;;;;;5.82;40.92;102307.84;5066763;28;20031;-70
2023/05/17 03:37:50;;;;;;;9.52;1.27;;;;;;;5.75;40.66;102303.50;5080821;27;20040;-71
2023/05/17 03:40:16;;;;;;;4.75;0.60;;;;;;;6.11;40.36;102317.44;5081900;27;20032;-70
2023/05/17 03:42:41;;;;;;;7.57;0.70;;;;;;;5.82;40.80;102313.91;5081453;27;20833;-71
2023/05/17 03:45:07;;;;;;;4.00;0.90;;;;;;;5.83;40.99;102307.84;5070466;28;20032;-70
2023/05/17 03:47:34;;;;;;;8.27;0.90;;;;;;;5.90;40.70;102307.88;5086872;27;20042;-70
2023/05/17 03:50:00;;;;;;;6.35;1.55;;;;;;;6.07;40.64;102311.38;5069338;28;20032;-70
2023/05/17 03:52:28;;;;;;;4.43;0.77;;;;;;;6.28;40.38;102314.03;5081864;27;20519;-70
2023/05/17 03:54:53;;;;;;;3.03;0.65;;;;;;;6.35;40.31;102317.50;5069053;27;20031;-71
2023/05/17 03:57:20;;;;;;;4.97;0.30;;;;;;;6.40;40.12;102325.31;5085130;27;20051;-71
2023/05/17 03:59:46;;;;;;;9.40;0.75;;;;;;;6.47;40.39;102321.84;5069909;27;20667;-71
2023/05/17 04:02:14;;;;;;;9.20;0.65;;;;;;;6.02;41.90;102333.88;5101541;27;20040;-71
2023/05/17 04:04:40;;;;;;;5.93;0.95;;;;;;;6.24;41.98;102330.44;5065637;28;20035;-70
2023/05/17 04:07:06;;;;;;;6.28;0.73;;;;;;;6.22;42.25;102352.06;5065667;28;20046;-70
2023/05/17 04:09:33;;;;;;;11.30;0.70;;;;;;;6.17;42.92;102348.59;5083238;28;20676;-69
2023/05/17 04:11:59;;;;;;;6.03;0.82;;;;;;;6.11;42.95;102343.41;5081702;28;20657;-69
2023/05/17 04:14:25;;;;;;;14.30;0.80;;;;;;;5.86;42.60;102351.13;5085367;27;20476;-70
2023/05/17 04:16:51;;;;;;;9.98;0.93;;;;;;;6.15;42.19;102345.13;5081416;27;20024;-70
2023/05/17 04:19:16;;;;;;;12.55;1.08;;;;;;;6.02;42.05;102352.03;5085951;27;20103;-72
2023/05/17 04:21:43;;;;;;;8.00;0.40;;;;;;;6.03;40.94;102354.59;5083055;27;20548;-70
2023/05/17 04:24:08;;;;;;;11.90;1.33;;;;;;;6.25;40.64;102357.25;5081951;27;20044;-72
2023/05/17 04:26:34;;;;;;;11.70;1.40;;;;;;;6.19;40.60;102362.44;5067502;27;20031;-69
2023/05/17 04:29:00;;;;;;;10.48;0.90;;;;;;;6.18;40.90;102365.91;5080196;28;20062;-70
2023/05/17 04:31:26;;;;;;;12.80;1.02;;;;;;;6.03;40.33;102372.78;5085332;27;21664;-69
2023/05/17 04:33:51;;;;;;;11.65;1.40;;;;;;;6.24;40.10;102377.19;5078243;27;20040;-71
2023/05/17 04:36:17;;;;;;;7.72;0.93;;;;;;;5.79;40.29;102385.66;5079496;28;20058;-70
2023/05/17 04:38:42;;;;;;;7.45;1.52;;;;;;;5.79;40.37;102390.84;5068043;27;20043;-70
2023/05/17 04:41:11;;;;;;;8.63;0.43;;;;;;;5.77;40.86;102400.34;5081885;27;20043;-70
2023/05/17 04:43:38;;;;;;;13.95;1.10;;;;;;;5.65;40.88;102401.16;5086854;27;20043;-70
2023/05/17 04:46:08;;;;;;;5.57;1.23;;;;;;;6.15;39.76;102403.13;5083690;28;20118;-69
2023/05/17 04:48:34;;;;;;;3.92;0.82;;;;;;;5.67;40.16;102400.31;5079522;27;20039;-70
2023/05/17 04:51:02;;;;;;;11.60;0.45;;;;;;;5.86;39.31;102405.63;5084807;28;20031;-73
2023/05/17 04:53:29;;;;;;;8.05;1.00;;;;;;;6.18;39.34;102402.25;5064028;28;20684;-72
2023/05/17 04:55:56;;;;;;;17.48;0.90;;;;;;;6.48;38.79;102404.97;5082878;27;20117;-71
2023/05/17 04:58:23;;;;;;;8.00;0.88;;;;;;;6.32;38.16;102405.78;5086932;27;20497;-70
2023/05/17 05:00:52;;;;;;;9.57;0.50;;;;;;;6.60;37.45;102413.63;5063639;28;20031;-72
2023/05/17 05:03:17;;;;;;;11.95;0.47;;;;;;;6.52;37.49;102415.34;5084076;28;20078;-72
2023/05/17 05:05:45;;;;;;;9.70;1.48;;;;;;;6.45;37.50;102411.88;5064182;28;20024;-71
2023/05/17 05:08:12;;;;;;;11.25;0.70;;;;;;;6.20;37.67;102409.19;5085829;27;20931;-71
2023/05/17 05:10:38;;;;;;;4.22;0.55;;;;;;;6.43;37.55;102417.06;5068276;28;20031;-72
2023/05/17 05:13:05;;;;;;;11.32;1.23;;;;;;;6.39;37.83;102423.09;5062929;28;20155;-72
2023/05/17 05:15:32;;;;;;;11.45;0.68;;;;;;;6.28;37.53;102424.81;5078574;28;20039;-72
2023/05/17 05:17:58;;;;;;;5.18;0.43;;;;;;;6.08;38.19;102428.19;5081293;27;20043;-71
2023/05/17 05:20:24;;;;;;;6.07;1.15;;;;;;;6.16;38.54;102435.13;5082847;27;20035;-71
2023/05/17 05:22:50;;;;;;;7.50;0.50;;;;;;;6.51;38.11;102430.06;5097593;27;20051;-70
2023/05/17 05:25:17;;;;;;;8.60;0.75;;;;;;;6.60;38.59;102440.47;5062737;27;20589;-71
2023/05/17 05:27:43;;;;;;;7.72;0.82;;;;;;;6.43;38.62;102443.03;5062421;27;20035;-72
2023/05/17 05:30:11;;;;;;;6.40;0.68;;;;;;;6.53;39.00;102446.53;5086154;27;20035;-71
2023/05/17 05:32:39;;;;;;;11.68;0.60;;;;;;;6.48;39.17;102449.13;5085152;27;20386;-72
2023/05/17 05:35:05;;;;;;;12.88;0.80;;;;;;;6.75;39.37;102454.34;5067203;28;20023;-73
2023/05/17 05:37:30;;;;;;;7.38;1.10;;;;;;;6.26;40.44;102462.84;5082128;27;20039;-72
2023/05/17 05:39:56;;;;;;;11.93;1.23;;;;;;;6.41;40.57;102459.47;5095750;27;20043;-72
2023/05/17 05:42:22;;;;;;;9.07;1.40;;;;;;;6.58;41.31;102465.59;5060592;28;20153;-69
2023/05/17 05:44:47;;;;;;;6.68;0.95;;;;;;;6.09;41.68;102466.25;5086792;27;20040;-72
2023/05/17 05:47:13;;;;;;;8.95;0.85;;;;;;;6.26;41.19;102468.94;5061492;28;20036;-72
2023/05/17 05:49:39;;;;;;;15.07;2.35;;;;;;;6.11;41.52;102474.06;5065524;28;20115;-70
2023/05/17 05:52:05;;;;;;;10.00;0.95;;;;;;;6.47;41.08;102478.53;5061187;28;20048;-72
2023/05/17 05:54:30;;;;;;;12.88;0.77;;;;;;;6.73;40.82;102485.53;5069951;28;20028;-72
2023/05/17 05:56:58;;;;;;;8.95;1.13;;;;;;;6.78;40.71;102481.22;5078448;27;20051;-72
2023/05/17 05:59:23;;;;;;;19.42;2.30;;;;;;;6.41;41.34;102483.72;5085306;28;20031;-74
2023/05/17 06:01:49;;;;;;;11.32;1.55;;;;;;;6.41;40.52;102488.91;5065459;28;20118;-69
2023/05/17 06:04:14;;;;;;;9.70;0.82;;;;;;;6.47;39.76;102488.94;5080088;28;20040;-73
2023/05/17 06:06:40;;;;;;;4.97;0.82;;;;;;;6.18;39.86;102493.13;5084197;27;20338;-70
2023/05/17 06:09:06;;;;;;;8.82;0.50;;;;;;;6.71;38.93;102492.47;5078135;28;20608;-70
2023/05/17 06:11:31;;;;;;;7.38;0.70;;;;;;;7.06;39.04;102500.28;5082769;27;20607;-73
2023/05/17 06:13:57;;;;;;;5.32;1.08;;;;;;;6.61;38.44;102501.09;5079960;28;20039;-70
2023/05/17 06:16:22;;;;;;;7.35;1.02;;;;;;;6.51;38.08;102510.59;5097255;27;20118;-70
2023/05/17 06:18:48;;;;;;;7.57;0.65;;;;;;;7.13;37.61;102514.16;5077563;28;20651;-70
2023/05/17 06:21:15;;;;;;;6.13;0.68;;;;;;;6.24;38.52;102511.34;5083608;28;20027;-73
2023/05/17 06:23:40;;;;;;;5.40;0.40;;;;;;;6.50;37.97;102520.09;5082533;28;20044;-68
2023/05/17 06:26:09;;;;;;;4.55;0.20;;;;;;;6.97;37.63;102515.03;5081474;28;20036;-69
2023/05/17 06:28:35;;;;;;;9.30;0.38;;;;;;;6.95;37.03;102528.00;5081540;28;20142;-73
2023/05/17 06:31:00;;;;;;;4.10;0.32;;;;;;;6.85;37.17;102523.69;5081082;28;20050;-72
2023/05/17 06:33:26;;;;;;;9.98;0.80;;;;;;;7.19;36.15;102527.19;5082092;28;20082;-70
2023/05/17 06:35:51;;;;;;;9.73;0.32;;;;;;;7.34;35.77;102534.13;5080510;28;20123;-69
2023/05/17 06:38:17;;;;;;;13.02;0.85;;;;;;;6.69;36.07;102543.56;5080917;28;21268;-71
2023/05/17 06:40:42;;;;;;;3.08;0.55;;;;;;;6.59;36.48;102546.97;5082381;28;20578;-69
2023/05/17 06:43:07;;;;;;;4.55;0.32;;;;;;;7.09;35.96;102554.06;5082946;28;20096;-73
2023/05/17 06:45:33;;;;;;;3.95;0.38;;;;;;;7.32;34.94;102554.94;5080770;28;20024;-71
2023/05/17 06:47:58;;;;;;;2.88;0.52;;;;;;;7.05;35.30;102562.72;5082848;27;20044;-70
2023/05/17 06:50:27;;;;;;;5.20;0.30;;;;;;;7.38;35.27;102563.59;5103349;27;20047;-70
2023/05/17 06:52:53;;;;;;;5.00;0.55;;;;;;;7.50;34.91;102561.88;5061987;28;20044;-71
2023/05/17 06:55:18;;;;;;;5.13;0.20;;;;;;;7.12;35.75;102561.84;5080653;28;20574;-70
2023/05/17 06:57:43;;;;;;;6.95;0.40;;;;;;;6.65;36.77;102567.78;5081515;28;20151;-70
2023/05/17 07:00:10;;;;;;;9.18;0.45;;;;;;;7.10;36.59;102573.97;5080564;28;20601;-70
2023/05/17 07:02:36;;;;;;;11.38;0.52;;;;;;;7.39;36.15;102581.81;5082093;28;20704;-69
2023/05/17 07:05:04;;;;;;;3.95;0.40;;;;;;;7.02;36.35;102573.97;5083248;28;20028;-69
2023/05/17 07:07:30;;;;;;;5.38;0.40;;;;;;;7.21;36.67;102577.47;5084097;28;20122;-70
2023/05/17 07:09:55;;;;;;;7.55;0.40;;;;;;;7.29;36.54;102586.16;5081889;28;20553;-70
2023/05/17 07:12:20;;;;;;;6.80;0.90;;;;;;;7.49;36.63;102590.50;5079068;28;20971;-71
2023/05/17 07:14:46;;;;;;;6.43;0.50;;;;;;;7.16;36.76;102589.59;5084494;28;20027;-71
2023/05/17 07:17:11;;;;;;;7.53;0.55;;;;;;;6.98;37.15;102600.81;5080639;28;20556;-70
2023/05/17 07:19:37;;;;;;;2.00;0.40;;;;;;;7.10;37.11;102599.97;5079757;28;20047;-70
2023/05/17 07:22:02;;;;;;;5.18;0.93;;;;;;;6.88;38.16;102607.72;5087850;27;20317;-70
2023/05/17 07:24:28;;;;;;;11.68;0.60;;;;;;;6.81;37.46;102603.34;5083261;28;20027;-71
2023/05/17 07:26:53;;;;;;;6.30;0.40;;;;;;;7.00;37.43;102603.41;5086762;27;20570;-70
2023/05/17 07:29:19;;;;;;;2.95;0.63;;;;;;;7.22;37.38;102604.31;5081864;27;20047;-71
2023/05/17 07:31:44;;;;;;;3.53;0.52;;;;;;;7.26;37.22;102603.47;5083859;27;20044;-71
2023/05/17 07:34:10;;;;;;;6.45;0.35;;;;;;;7.40;37.17;102603.47;5081980;28;20028;-70
2023/05/17 07:36:35;;;;;;;6.70;0.63;;;;;;;7.45;37.35;102601.78;5082018;27;20717;-71
2023/05/17 07:39:04;;;;;;;3.97;0.80;;;;;;;7.54;36.85;102612.19;5085455;27;20088;-70
2023/05/17 07:41:30;;;;;;;9.18;0.35;;;;;;;8.50;34.85;102616.41;5081973;27;20050;-70
2023/05/17 07:43:56;;;;;;;3.05;0.40;;;;;;;9.34;32.94;102614.25;5085235;27;20042;-71
2023/05/17 07:46:21;;;;;;;7.00;1.23;;;;;;;9.30;32.44;102615.19;5084284;28;20031;-71
2023/05/17 07:48:47;;;;;;;2.58;0.20;;;;;;;9.05;32.66;102617.06;5083322;27;20042;-71
2023/05/17 07:51:12;;;;;;;3.08;0.50;;;;;;;8.52;32.95;102619.03;5085296;27;20035;-70
2023/05/17 07:53:37;;;;;;;4.38;0.75;;;;;;;8.37;33.71;102622.53;5077794;27;20046;-70
2023/05/17 07:56:03;;;;;;;3.20;0.57;;;;;;;8.59;34.21;102630.28;5073178;28;20571;-69
2023/05/17 07:58:29;;;;;;;3.72;0.28;;;;;;;8.33;33.77;102639.91;5085535;27;20038;-70
2023/05/17 08:00:55;;;;;;;8.93;1.25;;;;;;;7.71;38.78;102652.13;5085250;27;20035;-71
2023/05/17 08:03:20;;;;;;;7.40;0.60;;;;;;;7.28;41.37;102656.38;5086110;27;20067;-71
2023/05/17 08:05:45;;;;;;;10.60;0.70;;;;;;;7.19;42.34;102657.22;5082280;27;20150;-70
2023/05/17 08:08:11;;;;;;;6.40;0.43;;;;;;;7.06;43.03;102660.63;5069313;28;20046;-70
2023/05/17 08:10:37;;;;;;;5.90;0.63;;;;;;;7.45;41.72;102664.22;5068711;27;20055;-70
2023/05/17 08:13:04;;;;;;;4.20;0.40;;;;;;;7.43;40.56;102671.16;5081741;28;20201;-69
2023/05/17 08:15:30;;;;;;;5.82;0.55;;;;;;;7.39;41.17;102678.06;5079836;27;20046;-70
2023/05/17 08:17:56;;;;;;;4.85;0.45;;;;;;;7.28;41.05;102672.84;5065515;27;20039;-71
2023/05/17 08:20:21;;;;;;;6.20;0.70;;;;;;;7.33;41.21;102676.34;5079109;27;20539;-71
2023/05/17 08:22:47;;;;;;;5.30;0.28;;;;;;;7.95;40.54;102669.47;5082585;27;20040;-71
2023/05/17 08:25:12;;;;;;;6.68;0.70;;;;;;;8.03;40.17;102668.63;5079954;27;20032;-71
2023/05/17 08:27:38;;;;;;;3.35;0.40;;;;;;;9.07;38.27;102657.03;5079949;27;20122;-71
2023/05/17 08:30:04;;;;;;;4.60;0.50;;;;;;;9.71;35.02;102656.63;5085186;27;20046;-70
2023/05/17 08:32:29;;;;;;;2.65;0.50;;;;;;;9.77;34.12;102656.56;5079314;27;20036;-71
2023/05/17 08:34:56;;;;;;;2.15;0.20;;;;;;;9.91;35.35;102659.09;5081990;27;20031;-71
2023/05/17 08:37:22;;;;;;;4.75;0.77;;;;;;;10.58;34.51;102649.69;5079632;28;20428;-70
2023/05/17 08:39:48;;;;;;;4.22;0.30;;;;;;;10.63;33.38;102647.88;5084530;27;20036;-71
2023/05/17 08:42:16;;;;;;;5.50;0.38;;;;;;;11.20;33.23;102652.41;5079414;27;20044;-71
2023/05/17 08:44:43;;;;;;;2.65;0.63;;;;;;;10.59;33.20;102659.28;5080929;27;20428;-70
2023/05/17 08:47:10;;;;;;;4.70;0.55;;;;;;;9.74;33.15;102656.56;5086201;28;20100;-70
2023/05/17 08:49:37;;;;;;;7.38;0.38;;;;;;;8.73;34.72;102667.63;5083342;27;20063;-69
2023/05/17 08:52:08;;;;;;;7.20;0.80;;;;;;;8.99;32.98;102670.13;5083473;27;20587;-70
2023/05/17 08:54:35;;;;;;;2.25;0.40;;;;;;;9.49;32.60;102665.50;5083075;27;20142;-70
2023/05/17 08:57:05;;;;;;;6.03;0.40;;;;;;;10.18;31.78;102673.66;5081903;27;20047;-70
2023/05/17 08:59:33;;;;;;;14.27;1.05;;;;;;;10.31;30.38;102663.09;5082187;28;20124;-70
2023/05/17 09:02:00;;;;;;;5.63;1.30;;;;;;;11.29;30.33;102667.13;5079381;27;20116;-71
2023/05/17 09:04:27;;;;;;;5.70;1.13;;;;;;;11.56;28.87;102672.84;5079893;28;20516;-70
2023/05/17 09:06:52;;;;;;;4.55;0.43;;;;;;;10.67;29.24;102687.09;5081626;27;20090;-70
2023/05/17 09:09:19;;;;;;;8.13;0.52;;;;;;;10.54;29.69;102681.97;5065447;28;20575;-71
2023/05/17 09:11:44;;;;;;;4.95;0.43;;;;;;;10.59;29.87;102685.44;5078517;28;20036;-71
2023/05/17 09:14:10;;;;;;;9.45;0.65;;;;;;;10.19;29.74;102685.84;5080051;28;20024;-70
2023/05/17 09:16:36;;;;;;;5.13;0.90;;;;;;;11.03;29.03;102691.03;5083420;28;20383;-71
2023/05/17 09:19:04;;;;;;;2.60;0.20;;;;;;;11.09;27.65;102695.34;5082729;28;20129;-70
2023/05/17 09:21:30;;;;;;;4.95;0.50;;;;;;;10.58;29.03;102703.75;5080464;27;20042;-71
2023/05/17 09:23:58;;;;;;;8.73;0.68;;;;;;;10.99;28.78;102705.03;5081085;28;20188;-70
2023/05/17 09:26:24;;;;;;;8.02;1.05;;;;;;;10.49;29.70;102709.06;5083364;27;20125;-70
2023/05/17 09:28:52;;;;;;;9.30;1.05;;;;;;;9.85;31.39;102715.75;5081453;27;20445;-71
2023/05/17 09:31:18;;;;;;;3.90;0.47;;;;;;;9.13;32.82;102719.63;5079852;27;20106;-70
2023/05/17 09:33:48;;;;;;;8.07;0.60;;;;;;;10.07;31.55;102717.28;5096876;27;20151;-70
2023/05/17 09:36:19;;;;;;;6.47;0.50;;;;;;;10.73;30.69;102715.78;5083926;27;20035;-70
2023/05/17 09:38:58;;;;;;;14.70;0.63;;;;;;;10.34;31.18;102710.09;5087876;27;20126;-71
2023/05/17 09:41:40;;;;;;;5.35;0.77;;;;;;;10.31;31.44;102721.44;5077360;28;20024;-70
2023/05/17 09:44:10;;;;;;;4.70;0.40;;;;;;;10.33;31.88;102718.81;5083676;28;20046;-70
2023/05/17 09:46:40;;;;;;;6.00;0.65;;;;;;;10.14;32.41;102718.97;5080686;27;20623;-70
2023/05/17 09:49:07;;;;;;;5.90;0.45;;;;;;;10.18;31.25;102728.53;5085158;28;20039;-70
2023/05/17 09:51:34;;;;;;;5.03;0.52;;;;;;;10.24;31.09;102726.75;5077504;27;20525;-70
2023/05/17 09:54:00;;;;;;;7.03;0.60;;;;;;;10.44;31.36;102724.81;5082416;27;20067;-70
2023/05/17 09:56:29;;;;;;;7.75;0.50;;;;;;;10.61;29.79;102715.03;5077757;28;20127;-71
2023/05/17 09:58:55;;;;;;;3.85;0.60;;;;;;;10.36;29.80;102729.25;5082940;27;20726;-71
2023/05/17 10:01:24;;;;;;;3.97;0.22;;;;;;;10.29;29.52;102727.56;5079420;28;20032;-71
2023/05/17 10:03:50;;;;;;;2.72;0.40;;;;;;;10.78;29.67;102729.69;5081981;28;20040;-71
2023/05/17 10:06:18;;;;;;;2.90;0.50;;;;;;;9.83;31.46;102728.81;5080890;28;20092;-68
2023/05/17 10:08:49;;;;;;;3.33;0.38;;;;;;;10.31;31.54;102729.28;5086023;27;20043;-71
2023/05/17 10:11:17;;;;;;;6.20;0.60;;;;;;;11.55;30.42;102731.31;5080536;28;20046;-71
2023/05/17 10:13:48;;;;;;;7.72;0.40;;;;;;;11.69;29.03;102732.00;5077299;28;20241;-70
2023/05/17 10:16:16;;;;;;;5.53;0.30;;;;;;;11.17;30.25;102735.34;5081831;28;20027;-71
2023/05/17 10:18:42;;;;;;;3.17;0.30;;;;;;;11.53;30.49;102730.47;5079236;28;20576;-71
2023/05/17 10:21:09;;;;;;;9.95;1.02;;;;;;;10.61;32.13;102759.47;5084211;28;20041;-70
2023/05/17 10:23:37;;;;;;;3.35;0.20;;;;;;;10.22;32.57;102758.97;5095283;27;21376;-71
2023/05/17 10:26:03;;;;;;;3.50;1.08;;;;;;;10.44;32.68;102748.34;5082762;28;20027;-71
2023/05/17 10:28:29;;;;;;;12.75;1.60;;;;;;;10.07;33.30;102761.72;5080546;28;20170;-73
2023/05/17 10:30:57;;;;;;;6.07;0.50;;;;;;;10.24;33.65;102758.13;5083509;28;20036;-71
2023/05/17 10:33:25;;;;;;;11.48;0.90;;;;;;;9.55;36.61;102751.59;5080232;28;20100;-72
2023/05/17 10:35:52;;;;;;;10.60;0.80;;;;;;;9.38;35.60;102752.53;5082254;28;20036;-70
2023/05/17 10:38:18;;;;;;;10.43;0.95;;;;;;;9.35;36.19;102757.78;5082834;28;20039;-71
2023/05/17 10:40:45;;;;;;;11.35;0.88;;;;;;;8.93;35.11;102753.59;5082389;28;20239;-71
2023/05/17 10:43:12;;;;;;;15.65;1.10;;;;;;;9.58;33.72;102747.22;5082006;28;20144;-70
2023/05/17 10:45:37;;;;;;;12.98;0.70;;;;;;;10.16;33.72;102753.78;5083454;28;20036;-70
2023/05/17 10:48:04;;;;;;;4.13;0.60;;;;;;;10.53;32.10;102750.88;5082809;28;20040;-71
2023/05/17 10:50:30;;;;;;;14.20;1.02;;;;;;;10.52;32.38;102756.09;5057360;28;20440;-71
2023/05/17 10:52:57;;;;;;;7.63;0.75;;;;;;;10.74;31.55;102755.00;5079887;28;20052;-70
2023/05/17 10:55:33;;;;;;;7.55;0.68;;;;;;;10.42;31.98;102760.56;5096992;27;20039;-70
2023/05/17 10:58:17;;;;;;;6.40;0.75;;;;;;;10.35;31.79;102764.13;5085667;27;20036;-70
2023/05/17 11:00:46;;;;;;;4.65;0.30;;;;;;;9.73;32.49;102769.75;5085316;28;20043;-69
2023/05/17 11:03:14;;;;;;;7.35;1.02;;;;;;;9.56;32.14;102766.38;5084263;27;20133;-71
2023/05/17 11:06:04;;;;;;;5.63;0.55;;;;;;;10.25;31.40;102768.53;5087391;27;20074;-71
2023/05/17 11:08:29;;;;;;;7.15;0.63;;;;;;;10.12;31.38;102762.53;5085691;27;20039;-71
2023/05/17 11:11:11;;;;;;;5.38;0.80;;;;;;;10.46;30.13;102767.50;5088525;27;20036;-70
2023/05/17 11:14:03;;;;;;;9.85;0.65;;;;;;;11.11;29.87;102766.84;5081575;27;20048;-69
2023/05/17 11:16:35;;;;;;;;;;;;;;;11.08;29.13;102761.63;5078605;28;20075;-71
2023/05/17 11:19:09;;;;;;;11.98;1.23;;;;;;;10.90;29.67;102760.09;5090141;27;19916;-71
2023/05/17 11:21:34;;;;;;;4.05;0.38;;;;;;;11.60;28.88;102761.81;5088423;27;20061;-71
2023/05/17 11:24:03;;;;;;;3.95;1.08;;;;;;;11.69;28.69;102766.06;5085234;28;20782;-70
2023/05/17 11:26:33;;;;;;;4.13;0.30;;;;;;;11.30;28.22;102757.84;5083017;27;20076;-71
2023/05/17 11:29:06;;;;;;;6.85;0.60;;;;;;;11.49;27.44;102757.63;5090005;27;20046;-71